sensor_id;sensor_type;location;lat;lon;timestamp;pressure;altitude;pressure_sealevel;temperature;humidity
79709;BME280;69203;48.964;9.118;2023-07-13T00:00:02;98906.59;;;18.84;60.82
79709;BME280;69203;48.964;9.118;2023-07-13T00:01:05;98903.22;;;18.82;60.78
79709;BME280;69203;48.964;9.118;2023-07-13T00:02:07;98900.88;;;18.79;61.10
79709;BME280;69203;48.964;9.118;2023-07-13T00:03:07;98893.38;;;18.75;61.28
79709;BME280;69203;48.964;9.118;2023-07-13T00:04:07;98895.19;;;18.74;60.94
79709;BME280;69203;48.964;9.118;2023-07-13T00:05:09;98888.91;;;18.75;60.61
79709;BME280;69203;48.964;9.118;2023-07-13T00:06:09;98890.88;;;18.73;61.08
79709;BME280;69203;48.964;9.118;2023-07-13T00:07:10;98894.50;;;18.72;60.86
79709;BME280;69203;48.964;9.118;2023-07-13T00:08:10;98885.63;;;18.64;60.57
79709;BME280;69203;48.964;9.118;2023-07-13T00:09:12;98887.59;;;18.62;60.68
79709;BME280;69203;48.964;9.118;2023-07-13T00:11:52;98884.84;;;18.53;60.51
79709;BME280;69203;48.964;9.118;2023-07-13T00:12:52;98884.84;;;18.53;60.61
79709;BME280;69203;48.964;9.118;2023-07-13T00:13:54;98888.63;;;18.51;60.57
79709;BME280;69203;48.964;9.118;2023-07-13T00:14:56;98888.50;;;18.52;60.69
79709;BME280;69203;48.964;9.118;2023-07-13T00:15:57;98886.56;;;18.54;60.37
79709;BME280;69203;48.964;9.118;2023-07-13T00:16:57;98886.66;;;18.53;60.41
79709;BME280;69203;48.964;9.118;2023-07-13T00:18:00;98884.84;;;18.53;60.64
79709;BME280;69203;48.964;9.118;2023-07-13T00:19:00;98884.28;;;18.60;60.25
79709;BME280;69203;48.964;9.118;2023-07-13T00:20:01;98889.34;;;18.53;60.13
79709;BME280;69203;48.964;9.118;2023-07-13T00:21:02;98881.69;;;18.50;60.52
79709;BME280;69203;48.964;9.118;2023-07-13T00:22:05;98880.66;;;18.51;60.28
79709;BME280;69203;48.964;9.118;2023-07-13T00:23:06;98880.66;;;18.51;60.37
79709;BME280;69203;48.964;9.118;2023-07-13T00:24:07;98878.63;;;18.45;60.57
79709;BME280;69203;48.964;9.118;2023-07-13T00:25:09;98886.66;;;18.35;60.95
79709;BME280;69203;48.964;9.118;2023-07-13T00:26:10;98883.16;;;18.35;61.05
79709;BME280;69203;48.964;9.118;2023-07-13T00:27:12;98886.97;;;18.32;61.12
79709;BME280;69203;48.964;9.118;2023-07-13T00:28:12;98888.75;;;18.24;61.27
79709;BME280;69203;48.964;9.118;2023-07-13T00:29:12;98878.25;;;18.22;61.05
79709;BME280;69203;48.964;9.118;2023-07-13T00:31:32;98875.81;;;18.29;60.67
79709;BME280;69203;48.964;9.118;2023-07-13T00:32:33;98875.13;;;18.27;60.92
79709;BME280;69203;48.964;9.118;2023-07-13T00:33:33;98871.94;;;18.23;60.83
79709;BME280;69203;48.964;9.118;2023-07-13T00:34:35;98872.22;;;18.20;61.92
79709;BME280;69203;48.964;9.118;2023-07-13T00:35:35;98874.28;;;18.26;60.69
79709;BME280;69203;48.964;9.118;2023-07-13T00:36:35;98870.50;;;18.29;60.98
79709;BME280;69203;48.964;9.118;2023-07-13T00:37:36;98874.16;;;18.28;60.80
79709;BME280;69203;48.964;9.118;2023-07-13T00:38:36;98874.53;;;18.33;60.67
79709;BME280;69203;48.964;9.118;2023-07-13T00:39:36;98874.16;;;18.28;60.44
79709;BME280;69203;48.964;9.118;2023-07-13T00:40:37;98875.66;;;18.30;60.54
79709;BME280;69203;48.964;9.118;2023-07-13T00:41:37;98878.63;;;18.27;60.61
79709;BME280;69203;48.964;9.118;2023-07-13T00:42:37;98876.44;;;18.23;60.39
79709;BME280;69203;48.964;9.118;2023-07-13T00:43:38;98877.56;;;18.20;60.21
79709;BME280;69203;48.964;9.118;2023-07-13T00:44:38;98874.59;;;18.23;60.43
79709;BME280;69203;48.964;9.118;2023-07-13T00:46:43;98865.81;;;18.23;60.27
79709;BME280;69203;48.964;9.118;2023-07-13T00:47:43;98871.72;;;18.17;60.91
79709;BME280;69203;48.964;9.118;2023-07-13T00:48:44;98874.97;;;18.10;60.52
79709;BME280;69203;48.964;9.118;2023-07-13T00:49:45;98871.72;;;18.17;60.54
79709;BME280;69203;48.964;9.118;2023-07-13T00:50:46;98870.28;;;18.22;60.40
79709;BME280;69203;48.964;9.118;2023-07-13T00:51:50;98869.44;;;18.22;60.48
79709;BME280;69203;48.964;9.118;2023-07-13T00:52:52;98863.44;;;18.20;60.06
79709;BME280;69203;48.964;9.118;2023-07-13T00:53:54;98880.75;;;18.24;60.43
79709;BME280;69203;48.964;9.118;2023-07-13T00:54:56;98880.00;;;18.13;60.30
79709;BME280;69203;48.964;9.118;2023-07-13T00:55:57;98880.97;;;18.12;60.42
79709;BME280;69203;48.964;9.118;2023-07-13T00:56:59;98882.09;;;18.10;60.56
79709;BME280;69203;48.964;9.118;2023-07-13T00:58:01;98880.59;;;18.07;60.42
79709;BME280;69203;48.964;9.118;2023-07-13T00:59:02;98883.78;;;18.11;60.35
79709;BME280;69203;48.964;9.118;2023-07-13T01:00:04;98888.41;;;18.09;60.38
79709;BME280;69203;48.964;9.118;2023-07-13T01:01:06;98875.56;;;18.04;60.67
79709;BME280;69203;48.964;9.118;2023-07-13T01:02:06;98879.50;;;18.00;60.99
79709;BME280;69203;48.964;9.118;2023-07-13T01:03:07;98878.22;;;18.04;60.74
79709;BME280;69203;48.964;9.118;2023-07-13T01:04:09;98877.97;;;17.98;60.61
79709;BME280;69203;48.964;9.118;2023-07-13T01:05:10;98884.28;;;17.97;60.21
79709;BME280;69203;48.964;9.118;2023-07-13T01:06:10;98884.06;;;17.90;60.67
79709;BME280;69203;48.964;9.118;2023-07-13T01:08:31;98893.09;;;17.97;60.13
79709;BME280;69203;48.964;9.118;2023-07-13T01:09:31;98889.38;;;17.90;60.40
79709;BME280;69203;48.964;9.118;2023-07-13T01:10:31;98892.72;;;17.92;60.04
79709;BME280;69203;48.964;9.118;2023-07-13T01:11:38;98893.09;;;17.97;60.47
79709;BME280;69203;48.964;9.118;2023-07-13T01:12:39;98889.22;;;17.92;60.11
79709;BME280;69203;48.964;9.118;2023-07-13T01:13:39;98888.91;;;17.95;60.42
79709;BME280;69203;48.964;9.118;2023-07-13T01:14:39;98890.28;;;17.99;60.02
79709;BME280;69203;48.964;9.118;2023-07-13T01:15:42;98890.72;;;17.94;60.35
79709;BME280;69203;48.964;9.118;2023-07-13T01:16:42;98889.22;;;17.92;59.84
79709;BME280;69203;48.964;9.118;2023-07-13T01:17:43;98886.72;;;17.90;60.12
79709;BME280;69203;48.964;9.118;2023-07-13T01:18:43;98883.34;;;17.88;60.51
79709;BME280;69203;48.964;9.118;2023-07-13T01:19:44;98885.47;;;17.85;60.60
79709;BME280;69203;48.964;9.118;2023-07-13T01:20:55;98878.09;;;17.79;61.21
79709;BME280;69203;48.964;9.118;2023-07-13T01:21:56;98888.19;;;17.75;60.83
79709;BME280;69203;48.964;9.118;2023-07-13T01:22:56;98874.75;;;17.77;60.92
79709;BME280;69203;48.964;9.118;2023-07-13T01:23:58;98876.47;;;17.68;60.97
79709;BME280;69203;48.964;9.118;2023-07-13T01:24:58;98883.91;;;17.64;61.33
79709;BME280;69203;48.964;9.118;2023-07-13T01:25:58;98877.47;;;17.67;61.19
79709;BME280;69203;48.964;9.118;2023-07-13T01:26:59;98877.31;;;17.68;61.42
79709;BME280;69203;48.964;9.118;2023-07-13T01:27:59;98871.47;;;17.65;61.35
79709;BME280;69203;48.964;9.118;2023-07-13T01:28:59;98878.88;;;17.61;61.53
79709;BME280;69203;48.964;9.118;2023-07-13T01:30:00;98869.09;;;17.62;61.56
79709;BME280;69203;48.964;9.118;2023-07-13T01:31:04;98877.91;;;17.62;61.29
79709;BME280;69203;48.964;9.118;2023-07-13T01:32:04;98871.09;;;17.60;61.33
79709;BME280;69203;48.964;9.118;2023-07-13T01:33:08;98880.44;;;17.54;61.79
79709;BME280;69203;48.964;9.118;2023-07-13T01:34:09;98874.16;;;17.55;61.57
79709;BME280;69203;48.964;9.118;2023-07-13T01:35:12;98876.09;;;17.63;61.59
79709;BME280;69203;48.964;9.118;2023-07-13T01:36:13;98877.63;;;17.56;61.81
79709;BME280;69203;48.964;9.118;2023-07-13T01:37:13;98878.50;;;17.47;61.55
79709;BME280;69203;48.964;9.118;2023-07-13T01:38:14;98882.97;;;17.46;61.36
79709;BME280;69203;48.964;9.118;2023-07-13T01:39:15;98889.81;;;17.49;61.01
79709;BME280;69203;48.964;9.118;2023-07-13T01:40:15;98878.63;;;17.45;61.56
79709;BME280;69203;48.964;9.118;2023-07-13T01:41:16;98877.53;;;17.48;61.00
79709;BME280;69203;48.964;9.118;2023-07-13T01:42:17;98878.09;;;17.42;61.08
79709;BME280;69203;48.964;9.118;2023-07-13T01:43:17;98878.69;;;17.36;61.28
79709;BME280;69203;48.964;9.118;2023-07-13T01:44:17;98876.34;;;17.33;61.50
79709;BME280;69203;48.964;9.118;2023-07-13T01:45:18;98879.81;;;17.33;60.78
79709;BME280;69203;48.964;9.118;2023-07-13T01:46:18;98879.25;;;17.39;60.58
79709;BME280;69203;48.964;9.118;2023-07-13T01:47:18;98887.59;;;17.44;60.80
79709;BME280;69203;48.964;9.118;2023-07-13T01:48:18;98881.72;;;17.41;60.78
79709;BME280;69203;48.964;9.118;2023-07-13T01:49:20;98877.38;;;17.49;60.54
79709;BME280;69203;48.964;9.118;2023-07-13T01:50:20;98881.59;;;17.42;60.32
79709;BME280;69203;48.964;9.118;2023-07-13T01:51:20;98886.91;;;17.42;60.55
79709;BME280;69203;48.964;9.118;2023-07-13T01:52:22;98884.69;;;17.38;60.67
79709;BME280;69203;48.964;9.118;2023-07-13T01:53:22;98889.44;;;17.44;60.82
79709;BME280;69203;48.964;9.118;2023-07-13T01:54:22;98891.50;;;17.40;60.90
79709;BME280;69203;48.964;9.118;2023-07-13T01:55:22;98897.38;;;17.44;60.76
79709;BME280;69203;48.964;9.118;2023-07-13T01:56:22;98894.16;;;17.50;60.29
79709;BME280;69203;48.964;9.118;2023-07-13T01:57:23;98898.75;;;17.48;60.70
79709;BME280;69203;48.964;9.118;2023-07-13T01:58:23;98894.88;;;17.42;60.45
79709;BME280;69203;48.964;9.118;2023-07-13T01:59:24;98894.16;;;17.40;60.45
79709;BME280;69203;48.964;9.118;2023-07-13T02:00:24;98895.56;;;17.44;60.01
79709;BME280;69203;48.964;9.118;2023-07-13T02:01:24;98893.59;;;17.46;60.35
79709;BME280;69203;48.964;9.118;2023-07-13T02:02:25;98897.38;;;17.44;60.32
79709;BME280;69203;48.964;9.118;2023-07-13T02:03:25;98903.22;;;17.47;60.79
79709;BME280;69203;48.964;9.118;2023-07-13T02:04:25;98898.50;;;17.41;60.64
79709;BME280;69203;48.964;9.118;2023-07-13T02:05:27;98899.47;;;17.40;60.62
79709;BME280;69203;48.964;9.118;2023-07-13T02:06:28;98893.09;;;17.33;60.82
79709;BME280;69203;48.964;9.118;2023-07-13T02:07:28;98892.69;;;17.28;61.24
79709;BME280;69203;48.964;9.118;2023-07-13T02:08:28;98896.19;;;17.28;61.46
79709;BME280;69203;48.964;9.118;2023-07-13T02:09:29;98894.19;;;17.30;60.87
79709;BME280;69203;48.964;9.118;2023-07-13T02:10:31;98902.31;;;17.29;60.60
79709;BME280;69203;48.964;9.118;2023-07-13T02:11:32;98903.44;;;17.26;60.89
79709;BME280;69203;48.964;9.118;2023-07-13T02:12:33;98900.66;;;17.28;60.82
79709;BME280;69203;48.964;9.118;2023-07-13T02:13:34;98901.75;;;17.25;60.44
79709;BME280;69203;48.964;9.118;2023-07-13T02:14:35;98903.44;;;17.26;60.46
79709;BME280;69203;48.964;9.118;2023-07-13T02:15:38;98902.75;;;17.24;60.52
79709;BME280;69203;48.964;9.118;2023-07-13T02:16:38;98907.50;;;17.21;60.33
79709;BME280;69203;48.964;9.118;2023-07-13T02:17:39;98905.97;;;17.18;60.46
79709;BME280;69203;48.964;9.118;2023-07-13T02:18:39;98907.63;;;17.19;59.95
79709;BME280;69203;48.964;9.118;2023-07-13T02:19:40;98910.28;;;17.19;59.66
79709;BME280;69203;48.964;9.118;2023-07-13T02:20:40;98904.16;;;17.19;59.82
79709;BME280;69203;48.964;9.118;2023-07-13T02:21:40;98913.78;;;17.20;60.16
79709;BME280;69203;48.964;9.118;2023-07-13T02:22:41;98912.09;;;17.19;59.72
79709;BME280;69203;48.964;9.118;2023-07-13T02:23:41;98920.66;;;17.13;60.19
79709;BME280;69203;48.964;9.118;2023-07-13T02:24:41;98916.78;;;17.07;60.69
79709;BME280;69203;48.964;9.118;2023-07-13T02:25:41;98917.03;;;17.04;59.88
79709;BME280;69203;48.964;9.118;2023-07-13T02:26:42;98910.75;;;17.05;59.88
79709;BME280;69203;48.964;9.118;2023-07-13T02:27:42;98911.47;;;17.07;60.13
79709;BME280;69203;48.964;9.118;2023-07-13T02:28:42;98908.94;;;17.06;60.19
79709;BME280;69203;48.964;9.118;2023-07-13T02:29:42;98908.66;;;17.09;60.14
79709;BME280;69203;48.964;9.118;2023-07-13T02:30:42;98915.75;;;17.18;59.54
79709;BME280;69203;48.964;9.118;2023-07-13T02:31:43;98912.09;;;17.19;59.55
79709;BME280;69203;48.964;9.118;2023-07-13T02:32:43;98906.22;;;17.25;59.36
79709;BME280;69203;48.964;9.118;2023-07-13T02:33:44;98909.72;;;17.25;59.09
79709;BME280;69203;48.964;9.118;2023-07-13T02:34:45;98903.88;;;17.22;60.09
79709;BME280;69203;48.964;9.118;2023-07-13T02:35:45;98911.13;;;17.20;59.82
79709;BME280;69203;48.964;9.118;2023-07-13T02:36:52;98900.53;;;17.20;59.37
79709;BME280;69203;48.964;9.118;2023-07-13T02:37:55;98905.97;;;17.18;59.34
79709;BME280;69203;48.964;9.118;2023-07-13T02:40:15;98912.09;;;17.19;59.32
79709;BME280;69203;48.964;9.118;2023-07-13T02:41:15;98912.28;;;17.17;59.32
79709;BME280;69203;48.964;9.118;2023-07-13T02:42:15;98912.94;;;17.19;59.39
79709;BME280;69203;48.964;9.118;2023-07-13T02:43:16;98916.56;;;17.18;59.39
79709;BME280;69203;48.964;9.118;2023-07-13T02:44:19;98913.50;;;17.13;59.54
79709;BME280;69203;48.964;9.118;2023-07-13T02:45:20;98909.88;;;17.14;59.80
79709;BME280;69203;48.964;9.118;2023-07-13T02:46:20;98914.94;;;17.17;59.77
79709;BME280;69203;48.964;9.118;2023-07-13T02:47:23;98912.84;;;17.11;60.28
79709;BME280;69203;48.964;9.118;2023-07-13T02:48:23;98918.16;;;17.11;61.19
79709;BME280;69203;48.964;9.118;2023-07-13T02:49:26;98921.22;;;17.16;60.91
79709;BME280;69203;48.964;9.118;2023-07-13T02:50:26;98911.00;;;17.21;60.75
79709;BME280;69203;48.964;9.118;2023-07-13T02:51:29;98920.66;;;17.13;62.22
79709;BME280;69203;48.964;9.118;2023-07-13T02:52:29;98924.16;;;17.04;62.10
79709;BME280;69203;48.964;9.118;2023-07-13T02:53:29;98920.97;;;17.00;62.45
79709;BME280;69203;48.964;9.118;2023-07-13T02:54:33;98924.47;;;16.91;61.81
79709;BME280;69203;48.964;9.118;2023-07-13T02:55:36;98925.84;;;17.05;61.70
79709;BME280;69203;48.964;9.118;2023-07-13T02:56:39;98924.19;;;16.84;63.31
79709;BME280;69203;48.964;9.118;2023-07-13T02:57:42;98928.25;;;16.69;63.70
79709;BME280;69203;48.964;9.118;2023-07-13T02:58:43;98919.28;;;16.51;64.39
79709;BME280;69203;48.964;9.118;2023-07-13T02:59:43;98923.31;;;16.45;64.61
79709;BME280;69203;48.964;9.118;2023-07-13T03:00:45;98927.09;;;16.43;64.01
79709;BME280;69203;48.964;9.118;2023-07-13T03:01:46;98921.94;;;16.32;64.94
79709;BME280;69203;48.964;9.118;2023-07-13T03:02:49;98924.69;;;16.30;65.07
79709;BME280;69203;48.964;9.118;2023-07-13T03:03:52;98926.94;;;16.44;64.77
79709;BME280;69203;48.964;9.118;2023-07-13T03:04:58;98930.28;;;16.37;64.86
79709;BME280;69203;48.964;9.118;2023-07-13T03:05:59;98929.03;;;16.22;66.21
79709;BME280;69203;48.964;9.118;2023-07-13T03:07:00;98926.19;;;16.04;67.14
79709;BME280;69203;48.964;9.118;2023-07-13T03:08:02;98927.44;;;15.90;67.92
79709;BME280;69203;48.964;9.118;2023-07-13T03:09:03;98926.31;;;16.02;66.93
79709;BME280;69203;48.964;9.118;2023-07-13T03:10:09;98935.22;;;15.92;66.98
79709;BME280;69203;48.964;9.118;2023-07-13T03:11:15;98937.72;;;15.93;67.08
79709;BME280;69203;48.964;9.118;2023-07-13T03:12:16;98938.25;;;15.78;68.07
79709;BME280;69203;48.964;9.118;2023-07-13T03:13:17;98933.44;;;15.62;68.69
79709;BME280;69203;48.964;9.118;2023-07-13T03:14:19;98935.59;;;15.47;68.88
79709;BME280;69203;48.964;9.118;2023-07-13T03:15:19;98932.75;;;15.39;69.07
79709;BME280;69203;48.964;9.118;2023-07-13T03:16:20;98937.88;;;15.31;68.94
79709;BME280;69203;48.964;9.118;2023-07-13T03:17:20;98931.00;;;15.29;68.83
79709;BME280;69203;48.964;9.118;2023-07-13T03:18:20;98933.28;;;15.33;69.23
79709;BME280;69203;48.964;9.118;2023-07-13T03:19:21;98943.47;;;15.38;69.26
79709;BME280;69203;48.964;9.118;2023-07-13T03:20:21;98938.59;;;15.33;70.57
79709;BME280;69203;48.964;9.118;2023-07-13T03:21:21;98942.44;;;15.29;70.31
79709;BME280;69203;48.964;9.118;2023-07-13T03:22:23;98937.88;;;15.31;70.92
79709;BME280;69203;48.964;9.118;2023-07-13T03:23:24;98941.75;;;15.27;69.58
79709;BME280;69203;48.964;9.118;2023-07-13T03:24:24;98942.72;;;15.26;69.73
79709;BME280;69203;48.964;9.118;2023-07-13T03:25:28;98945.47;;;15.25;70.08
79709;BME280;69203;48.964;9.118;2023-07-13T03:26:28;98946.25;;;15.15;70.47
79709;BME280;69203;48.964;9.118;2023-07-13T03:27:29;98947.22;;;15.14;71.05
79709;BME280;69203;48.964;9.118;2023-07-13T03:29:51;98947.16;;;15.26;71.16
79709;BME280;69203;48.964;9.118;2023-07-13T03:30:58;98941.16;;;15.23;70.09
79709;BME280;69203;48.964;9.118;2023-07-13T03:31:58;98946.72;;;15.20;71.12
79709;BME280;69203;48.964;9.118;2023-07-13T03:33:04;98946.72;;;15.20;71.66
79709;BME280;69203;48.964;9.118;2023-07-13T03:34:04;98943.34;;;15.18;70.90
79709;BME280;69203;48.964;9.118;2023-07-13T03:35:07;98946.25;;;15.15;70.75
79709;BME280;69203;48.964;9.118;2023-07-13T03:36:10;98947.72;;;15.29;70.42
79709;BME280;69203;48.964;9.118;2023-07-13T03:37:10;98949.81;;;15.26;70.55
79709;BME280;69203;48.964;9.118;2023-07-13T03:38:13;98952.00;;;15.20;70.00
79709;BME280;69203;48.964;9.118;2023-07-13T03:39:14;98954.66;;;15.20;70.12
79709;BME280;69203;48.964;9.118;2023-07-13T03:40:16;98957.81;;;15.14;70.36
79709;BME280;69203;48.964;9.118;2023-07-13T03:41:16;98961.41;;;15.13;70.40
79709;BME280;69203;48.964;9.118;2023-07-13T03:42:17;98959.44;;;15.06;70.43
79709;BME280;69203;48.964;9.118;2023-07-13T03:43:17;98965.56;;;15.06;72.28
79709;BME280;69203;48.964;9.118;2023-07-13T03:44:20;98962.59;;;15.00;71.57
79709;BME280;69203;48.964;9.118;2023-07-13T03:45:23;98968.19;;;15.06;71.34
79709;BME280;69203;48.964;9.118;2023-07-13T03:46:25;98964.72;;;15.06;71.78
79709;BME280;69203;48.964;9.118;2023-07-13T03:47:26;98968.78;;;15.10;72.22
79709;BME280;69203;48.964;9.118;2023-07-13T03:48:34;98969.00;;;15.07;71.47
79709;BME280;69203;48.964;9.118;2023-07-13T03:49:34;98977.44;;;15.12;71.80
79709;BME280;69203;48.964;9.118;2023-07-13T03:50:37;98972.38;;;15.09;71.81
79709;BME280;69203;48.964;9.118;2023-07-13T03:51:38;98975.47;;;15.14;73.39
79709;BME280;69203;48.964;9.118;2023-07-13T03:52:38;98978.84;;;15.16;71.55
79709;BME280;69203;48.964;9.118;2023-07-13T03:53:49;98980.53;;;15.17;72.02
79709;BME280;69203;48.964;9.118;2023-07-13T03:54:52;98978.31;;;15.22;71.93
79709;BME280;69203;48.964;9.118;2023-07-13T03:55:52;98982.06;;;15.19;72.23
79709;BME280;69203;48.964;9.118;2023-07-13T03:56:55;98983.91;;;15.29;72.88
79709;BME280;69203;48.964;9.118;2023-07-13T03:59:14;98985.81;;;15.38;71.98
79709;BME280;69203;48.964;9.118;2023-07-13T04:00:15;98980.44;;;15.28;72.11
79709;BME280;69203;48.964;9.118;2023-07-13T04:01:18;98991.34;;;15.35;72.12
79709;BME280;69203;48.964;9.118;2023-07-13T04:02:21;98992.44;;;15.32;72.20
79709;BME280;69203;48.964;9.118;2023-07-13T04:03:30;98995.38;;;15.39;71.88
79709;BME280;69203;48.964;9.118;2023-07-13T04:04:32;98997.41;;;15.46;72.06
79709;BME280;69203;48.964;9.118;2023-07-13T04:06:56;98997.28;;;15.48;71.43
79709;BME280;69203;48.964;9.118;2023-07-13T04:08:05;98993.59;;;15.60;70.47
79709;BME280;69203;48.964;9.118;2023-07-13T04:10:27;98998.31;;;15.56;71.73
79709;BME280;69203;48.964;9.118;2023-07-13T04:11:30;98986.66;;;15.59;71.61
79709;BME280;69203;48.964;9.118;2023-07-13T04:12:31;98998.38;;;15.66;71.05
79709;BME280;69203;48.964;9.118;2023-07-13T04:13:31;98995.88;;;15.65;71.36
79709;BME280;69203;48.964;9.118;2023-07-13T04:14:32;98997.91;;;15.61;70.85
79709;BME280;69203;48.964;9.118;2023-07-13T04:15:33;99003.38;;;15.59;71.84
79709;BME280;69203;48.964;9.118;2023-07-13T04:16:33;99002.19;;;15.52;71.43
79709;BME280;69203;48.964;9.118;2023-07-13T04:17:34;98998.06;;;15.59;71.03
79709;BME280;69203;48.964;9.118;2023-07-13T04:18:36;99002.38;;;15.60;70.93
79709;BME280;69203;48.964;9.118;2023-07-13T04:19:36;99002.78;;;15.56;71.54
79709;BME280;69203;48.964;9.118;2023-07-13T04:22:12;99002.13;;;15.63;71.45
79709;BME280;69203;48.964;9.118;2023-07-13T04:23:12;99005.56;;;15.54;71.57
79709;BME280;69203;48.964;9.118;2023-07-13T04:24:15;99002.38;;;15.60;70.88
79709;BME280;69203;48.964;9.118;2023-07-13T04:25:20;99000.28;;;15.54;71.28
79709;BME280;69203;48.964;9.118;2023-07-13T04:26:21;99009.19;;;15.53;70.87
79709;BME280;69203;48.964;9.118;2023-07-13T04:27:22;99008.53;;;15.50;70.90
79709;BME280;69203;48.964;9.118;2023-07-13T04:28:23;99008.34;;;15.53;72.64
79709;BME280;69203;48.964;9.118;2023-07-13T04:29:24;99006.97;;;15.58;71.28
79709;BME280;69203;48.964;9.118;2023-07-13T04:30:26;99002.81;;;15.66;72.01
79709;BME280;69203;48.964;9.118;2023-07-13T04:31:28;99010.31;;;15.60;72.43
79709;BME280;69203;48.964;9.118;2023-07-13T04:32:28;99005.63;;;15.64;70.96
79709;BME280;69203;48.964;9.118;2023-07-13T04:33:31;99009.66;;;15.68;72.81
79709;BME280;69203;48.964;9.118;2023-07-13T04:34:31;99008.09;;;15.66;71.64
79709;BME280;69203;48.964;9.118;2023-07-13T04:35:31;99003.97;;;15.73;71.82
79709;BME280;69203;48.964;9.118;2023-07-13T04:36:34;99011.31;;;15.90;71.28
79709;BME280;69203;48.964;9.118;2023-07-13T04:37:58;99010.34;;;15.91;70.92
79709;BME280;69203;48.964;9.118;2023-07-13T04:38:59;99007.09;;;15.87;71.57
79709;BME280;69203;48.964;9.118;2023-07-13T04:39:59;99011.28;;;15.80;70.61
79709;BME280;69203;48.964;9.118;2023-07-13T04:41:01;99011.56;;;15.87;72.67
79709;BME280;69203;48.964;9.118;2023-07-13T04:42:02;99003.59;;;15.87;70.57
79709;BME280;69203;48.964;9.118;2023-07-13T04:43:05;99007.69;;;15.91;71.76
79709;BME280;69203;48.964;9.118;2023-07-13T04:44:05;99007.84;;;15.99;71.09
79709;BME280;69203;48.964;9.118;2023-07-13T04:45:19;99005.63;;;16.04;71.47
79709;BME280;69203;48.964;9.118;2023-07-13T04:46:19;99013.06;;;16.20;69.91
79709;BME280;69203;48.964;9.118;2023-07-13T04:47:22;99003.63;;;16.27;70.41
79709;BME280;69203;48.964;9.118;2023-07-13T04:48:30;99008.50;;;16.31;70.53
79709;BME280;69203;48.964;9.118;2023-07-13T04:49:30;99007.38;;;16.24;70.11
79709;BME280;69203;48.964;9.118;2023-07-13T04:50:31;99008.53;;;16.41;68.55
79709;BME280;69203;48.964;9.118;2023-07-13T04:51:31;99010.94;;;16.54;67.77
79709;BME280;69203;48.964;9.118;2023-07-13T04:52:36;99004.78;;;16.53;67.79
79709;BME280;69203;48.964;9.118;2023-07-13T04:53:37;99003.13;;;16.52;67.29
79709;BME280;69203;48.964;9.118;2023-07-13T04:54:45;99008.28;;;16.54;68.50
79709;BME280;69203;48.964;9.118;2023-07-13T04:55:45;99014.84;;;16.50;68.50
79709;BME280;69203;48.964;9.118;2023-07-13T04:56:52;99016.38;;;16.52;69.21
79709;BME280;69203;48.964;9.118;2023-07-13T04:57:52;99012.31;;;16.58;68.23
79709;BME280;69203;48.964;9.118;2023-07-13T04:58:57;99017.38;;;16.61;68.92
79709;BME280;69203;48.964;9.118;2023-07-13T05:00:00;99012.66;;;16.64;68.61
79709;BME280;69203;48.964;9.118;2023-07-13T05:01:10;99013.78;;;16.81;68.71
79709;BME280;69203;48.964;9.118;2023-07-13T05:02:13;99011.81;;;16.83;66.24
79709;BME280;69203;48.964;9.118;2023-07-13T05:03:13;99010.28;;;17.09;65.64
79709;BME280;69203;48.964;9.118;2023-07-13T05:05:34;99004.78;;;17.40;66.00
79709;BME280;69203;48.964;9.118;2023-07-13T05:06:37;99008.44;;;17.48;64.76
79709;BME280;69203;48.964;9.118;2023-07-13T05:07:37;99006.19;;;17.53;63.24
79709;BME280;69203;48.964;9.118;2023-07-13T05:08:40;99008.13;;;17.61;62.19
79709;BME280;69203;48.964;9.118;2023-07-13T05:09:43;99009.16;;;17.97;62.92
79709;BME280;69203;48.964;9.118;2023-07-13T05:11:01;99009.81;;;17.99;61.29
79709;BME280;69203;48.964;9.118;2023-07-13T05:12:07;99007.75;;;18.20;62.19
79709;BME280;69203;48.964;9.118;2023-07-13T05:13:09;99010.66;;;18.27;61.42
79709;BME280;69203;48.964;9.118;2023-07-13T05:14:17;99013.66;;;18.41;61.40
79709;BME280;69203;48.964;9.118;2023-07-13T05:15:18;99016.25;;;18.51;61.37
79709;BME280;69203;48.964;9.118;2023-07-13T05:16:21;99013.41;;;18.62;60.94
79709;BME280;69203;48.964;9.118;2023-07-13T05:17:21;99015.25;;;18.62;59.81
79709;BME280;69203;48.964;9.118;2023-07-13T05:18:22;99010.63;;;18.64;58.37
79709;BME280;69203;48.964;9.118;2023-07-13T05:19:25;99012.28;;;18.65;60.01
79709;BME280;69203;48.964;9.118;2023-07-13T05:20:27;99012.22;;;18.74;59.62
79709;BME280;69203;48.964;9.118;2023-07-13T05:21:33;99015.63;;;18.67;60.16
79709;BME280;69203;48.964;9.118;2023-07-13T05:22:34;99017.91;;;18.62;59.66
79709;BME280;69203;48.964;9.118;2023-07-13T05:23:37;99017.28;;;18.68;60.07
79709;BME280;69203;48.964;9.118;2023-07-13T05:24:38;99012.44;;;18.63;59.82
79709;BME280;69203;48.964;9.118;2023-07-13T05:25:45;99020.41;;;18.63;60.12
79709;BME280;69203;48.964;9.118;2023-07-13T05:26:48;99018.13;;;18.68;60.11
79709;BME280;69203;48.964;9.118;2023-07-13T05:27:48;99018.97;;;18.69;60.14
79709;BME280;69203;48.964;9.118;2023-07-13T05:28:57;99021.31;;;18.72;60.25
79709;BME280;69203;48.964;9.118;2023-07-13T05:29:57;99023.38;;;18.78;60.26
79709;BME280;69203;48.964;9.118;2023-07-13T05:30:58;99025.06;;;18.79;59.81
79709;BME280;69203;48.964;9.118;2023-07-13T05:31:58;99022.84;;;18.74;59.81
79709;BME280;69203;48.964;9.118;2023-07-13T05:33:01;99025.84;;;18.71;59.75
79709;BME280;69203;48.964;9.118;2023-07-13T05:34:02;99024.81;;;18.72;59.88
79709;BME280;69203;48.964;9.118;2023-07-13T05:35:02;99032.19;;;18.78;59.75
79709;BME280;69203;48.964;9.118;2023-07-13T05:36:02;99028.25;;;18.82;59.71
79709;BME280;69203;48.964;9.118;2023-07-13T05:37:03;99024.41;;;18.77;60.09
79709;BME280;69203;48.964;9.118;2023-07-13T05:38:03;99024.69;;;18.74;60.20
79709;BME280;69203;48.964;9.118;2023-07-13T05:39:06;99028.88;;;18.76;59.75
79709;BME280;69203;48.964;9.118;2023-07-13T05:40:07;99027.81;;;18.87;60.15
79709;BME280;69203;48.964;9.118;2023-07-13T05:41:10;99032.69;;;18.91;60.12